• Join FlightAware (Why Join?)
  • Login
  • US Flag 
01:40PM EDT


 

Airport Tracker/Info


-or-


 

Live Flight TrackerFlight Track Log ✈ SWA3206 ✈ 01-May-2013 ✈ KPHX - KBWI

Flight Track Log - Related Links

Times and Time Zones

All times are in EDT time to prevent confusion due to time zone crossing. See the SWA3206 flight status page for this flight to view local times or setup timezone preferences in your user account.

Time Position Orientation Groundspeed Altitude Reporting Facility
EDT Latitude Longitude Course Direction KTS MPH feet Rate Location/Type
08:52PM 33.4333 -112.0667 270° West 179 206 2,900  Level Phoenix TRACON
08:53PM 33.4333 -112.1333 270° West 211 243 5,000 2,520 Climbing Phoenix TRACON
08:54PM 33.4386 -112.1711 280° West 218 251 6,800 2,580 Climbing Albuquerque Center
08:55PM 33.4950 -112.1681 North 257 296 9,300 2,460 Climbing Albuquerque Center
08:56PM 33.5167 -112.0678 75° East 316 364 11,900 2,700 Climbing Albuquerque Center
08:57PM 33.5422 -111.9539 75° East 354 407 14,900 2,940 Climbing Albuquerque Center
08:58PM 33.5678 -111.8333 76° East 374 430 17,900 3,120 Climbing Albuquerque Center
08:59PM 33.6011 -111.6822 75° East 392 451 21,300 2,820 Climbing Albuquerque Center
09:00PM 33.6294 -111.5497 76° East 411 473 23,800 2,220 Climbing Albuquerque Center
09:01PM 33.6578 -111.4114 76° East 429 494 25,900 1,980 Climbing Albuquerque Center
09:02PM 33.6889 -111.2672 75° East 447 514 27,900 1,860 Climbing Albuquerque Center
09:03PM 33.7389 -111.1261 67° East 461 531 29,700 1,680 Climbing Albuquerque Center
09:04PM 33.7894 -110.9819 67° East 470 541 31,400 1,740 Climbing Albuquerque Center
09:05PM 33.8419 -110.8367 66° East 475 547 33,300 1,860 Climbing Albuquerque Center
09:06PM 33.9033 -110.6628 67° East 474 545 35,300 1,620 Climbing Albuquerque Center
09:07PM 33.9533 -110.5183 67° East 471 542 36,700 1,260 Climbing Albuquerque Center
09:08PM 34.0003 -110.3814 68° East 473 544 38,000 1,080 Climbing Albuquerque Center
09:09PM 34.0519 -110.2328 67° East 479 551 39,000 480 Climbing Albuquerque Center
09:10PM 34.1033 -110.0850 67° East 481 554 39,000  Level Albuquerque Center
09:11PM 34.1633 -109.9147 67° East 471 542 39,000  Level Albuquerque Center
09:12PM 34.2092 -109.7753 68° East 468 539 39,000  Level Albuquerque Center
09:13PM 34.2658 -109.6158 67° East 466 536 39,000  Level Albuquerque Center
09:14PM 34.3125 -109.4761 68° East 467 537 39,000  Level Albuquerque Center
09:15PM 34.3600 -109.3331 68° East 473 544 39,000  Level Albuquerque Center
09:16PM 34.4156 -109.1692 68° East 474 545 39,000  Level Albuquerque Center
09:17PM 34.4581 -109.0250 70° East 474 545 39,000  Level Albuquerque Center
09:18PM 34.5039 -108.8564 72° East 473 544 39,000  Level Albuquerque Center
09:19PM 34.5442 -108.7111 71° East 474 545 39,000  Level Albuquerque Center
09:20PM 34.5833 -108.5656 72° East 475 547 39,000  Level Albuquerque Center
09:21PM 34.6231 -108.4200 72° East 476 548 39,000  Level Albuquerque Center
09:22PM 34.6728 -108.2375 72° East 475 547 39,000  Level Albuquerque Center
09:23PM 34.7142 -108.0844 72° East 477 549 39,000  Level Albuquerque Center
09:24PM 34.7550 -107.9311 72° East 476 548 39,000  Level Albuquerque Center
09:25PM 34.7958 -107.7767 72° East 479 551 39,000  Level Albuquerque Center
09:26PM 34.8383 -107.6214 72° East 482 555 39,000  Level Albuquerque Center
09:27PM 34.9042 -107.4806 60° Northeast 488 562 39,000  Level Albuquerque Center
09:28PM 34.9736 -107.3414 59° Northeast 481 554 39,000  Level Albuquerque Center
09:29PM 35.0522 -107.1811 59° Northeast 479 551 39,000  Level Albuquerque Center
09:30PM 35.1250 -107.0333 59° Northeast 481 554 39,000  Level Albuquerque Center
09:32PM 35.1886 -106.9008 60° Northeast 475 547 39,000  Level Albuquerque Center
09:33PM 35.2536 -106.7683 59° Northeast 475 547 39,000  Level Albuquerque Center
09:34PM 35.3322 -106.6094 59° Northeast 483 556 39,000  Level Albuquerque Center
09:35PM 35.3889 -106.4872 60° Northeast 483 556 39,000  Level Albuquerque Center
09:36PM 35.4578 -106.3456 59° Northeast 484 557 39,000  Level Albuquerque Center
09:37PM 35.5389 -106.1731 60° Northeast 485 558 39,000  Level Albuquerque Center
09:38PM 35.6067 -106.0289 60° Northeast 486 559 39,000  Level Albuquerque Center
09:39PM 35.6744 -105.8836 60° Northeast 489 563 39,000  Level Albuquerque Center
09:40PM 35.7419 -105.7397 60° Northeast 486 559 39,000  Level Albuquerque Center
09:41PM 35.8097 -105.5942 60° Northeast 488 562 39,000  Level Albuquerque Center
09:42PM 35.8822 -105.4364 60° Northeast 485 558 39,000  Level Albuquerque Center
09:43PM 35.9506 -105.2903 60° Northeast 485 558 39,000  Level Albuquerque Center
09:44PM 36.0172 -105.1447 60° Northeast 483 556 39,000  Level Albuquerque Center
09:45PM 36.0839 -104.9975 61° Northeast 483 556 39,000  Level Albuquerque Center
09:46PM 36.1500 -104.8528 60° Northeast 481 554 39,000  Level Albuquerque Center
09:47PM 36.2158 -104.7081 61° Northeast 478 550 39,000  Level Albuquerque Center
09:48PM 36.2833 -104.5600 60° Northeast 484 557 39,000 240 Level Albuquerque Center
09:49PM 36.3497 -104.4122 61° Northeast 485 558 39,500 780 Climbing Albuquerque Center
09:50PM 36.4133 -104.2650 62° Northeast 482 555 40,600 720 Climbing Albuquerque Center
09:51PM 36.4539 -104.1028 73° East 481 554 41,000 180 Climbing Albuquerque Center
09:52PM 36.4953 -103.9419 72° East 483 556 41,000  Level Albuquerque Center
09:53PM 36.5383 -103.7775 72° East 490 564 41,000  Level Albuquerque Center
09:54PM 36.5822 -103.6142 71° East 493 567 41,000  Level Albuquerque Center
09:55PM 36.6250 -103.4478 72° East 497 572 41,000  Level Albuquerque Center
09:56PM 36.6667 -103.2822 73° East 496 571 41,000  Level Albuquerque Center
09:57PM 36.7083 -103.1194 72° East 493 567 41,000  Level Albuquerque Center
09:58PM 36.7492 -102.9556 73° East 489 563 41,000  Level Albuquerque Center
09:59PM 36.7903 -102.7928 72° East 489 563 41,000  Level Albuquerque Center
10:00PM 36.8308 -102.6317 72° East 485 558 41,000  Level Albuquerque Center
10:01PM 36.8783 -102.4411 73° East 492 566 41,000  Level Albuquerque Center
10:02PM 36.9147 -102.2908 73° East 484 557 41,000  Level Albuquerque Center
10:03PM 36.9517 -102.1364 73° East 484 557 41,000  Level Albuquerque Center
10:04PM 36.9964 -101.9583 72° East 483 556 41,000  Level Albuquerque Center
10:05PM 37.0331 -101.8039 73° East 484 557 41,000  Level Albuquerque Center
10:06PM 37.0767 -101.6231 73° East 487 560 41,000  Level Albuquerque Center
10:08PM 37.1361 -101.3644 74° East 485 558 41,000  Level Kansas City Center
10:09PM 37.1733 -101.2108 73° East 483 556 41,000  Level Kansas City Center
10:10PM 37.2158 -101.0306 73° East 484 557 41,000  Level Kansas City Center
10:11PM 37.2517 -100.8778 74° East 482 555 41,000  Level Kansas City Center
10:12PM 37.2919 -100.7014 74° East 478 550 41,000  Level Kansas City Center
10:13PM 37.3267 -100.5514 74° East 474 545 41,000  Level Kansas City Center
10:14PM 37.3658 -100.3786 74° East 467 537 41,000  Level Kansas City Center
10:15PM 37.4153 -100.2369 66° East 468 539 41,000  Level Kansas City Center
10:16PM 37.4761 -100.1014 60° Northeast 467 537 41,000  Level Kansas City Center
10:17PM 37.5478 -99.9400 61° Northeast 471 542 41,000  Level Kansas City Center
10:18PM 37.6117 -99.8011 60° Northeast 478 550 41,000  Level Kansas City Center
10:19PM 37.6831 -99.6381 61° Northeast 477 549 41,000  Level Kansas City Center
10:20PM 37.7422 -99.4964 62° Northeast 476 548 41,000  Level Kansas City Center
10:21PM 37.8014 -99.3633 61° Northeast 477 549 41,000  Level Kansas City Center
10:22PM 37.8625 -99.2153 62° Northeast 476 548 41,000  Level Kansas City Center
10:23PM 37.8783 -99.0194 84° East 467 537 41,000  Level Kansas City Center
10:24PM 37.8903 -98.8564 85° East 465 535 41,000  Level Kansas City Center
10:25PM 37.9008 -98.6964 85° East 460 529 41,000  Level Kansas City Center
10:26PM 37.9267 -98.5397 78° East 454 522 41,000  Level Kansas City Center
10:27PM 37.9319 -98.3792 88° East 455 524 41,000  Level Kansas City Center
10:28PM 37.9389 -98.2194 87° East 455 524 41,000  Level Kansas City Center
10:29PM 37.9450 -98.0444 87° East 455 524 41,000  Level Kansas City Center
10:30PM 37.9514 -97.8861 87° East 452 520 41,000  Level Kansas City Center
10:31PM 37.9592 -97.7122 87° East 472 543 41,000  Level Kansas City Center
10:32PM 37.9667 -97.5489 87° East 468 539 41,000  Level Kansas City Center
10:33PM 37.9733 -97.3906 87° East 466 536 41,000  Level Kansas City Center
10:34PM 37.9797 -97.2258 87° East 468 539 41,000  Level Kansas City Center
10:35PM 37.9911 -97.0606 85° East 471 542 41,000  Level Kansas City Center
10:36PM 38.0261 -96.8994 75° East 475 547 41,000  Level Kansas City Center
10:37PM 38.0578 -96.7378 76° East 475 547 41,000  Level Kansas City Center
10:38PM 38.0892 -96.5744 76° East 477 549 41,000  Level Kansas City Center
10:39PM 38.1264 -96.3808 76° East 472 543 41,000  Level Kansas City Center
10:41PM 38.1561 -96.2225 77° East 463 533 41,000  Level Kansas City Center
10:42PM 38.1842 -96.0775 76° East 462 532 41,000  Level Kansas City Center
10:43PM 38.2175 -95.9003 76° East 461 531 41,000  Level Kansas City Center
10:44PM 38.2464 -95.7489 76° East 462 532 41,000  Level Kansas City Center
10:45PM 38.2792 -95.5714 77° East 465 535 41,000  Level Kansas City Center
10:46PM 38.3067 -95.4183 77° East 465 535 41,000  Level Kansas City Center
10:47PM 38.3344 -95.2653 77° East 465 535 41,000  Level Kansas City Center
10:48PM 38.3681 -95.0878 76° East 464 534 41,000  Level Kansas City Center
10:49PM 38.3953 -94.9353 77° East 463 533 41,000  Level Kansas City Center
10:50PM 38.4219 -94.7856 77° East 458 527 41,000  Level Kansas City Center
10:51PM 38.4531 -94.6100 77° East 457 526 41,000  Level Kansas City Center
10:52PM 38.4803 -94.4594 77° East 456 525 41,000  Level Kansas City Center
10:53PM 38.5097 -94.2856 78° East 452 520 41,000  Level Kansas City Center
10:54PM 38.5350 -94.1375 78° East 448 516 41,000  Level Kansas City Center
10:55PM 38.5600 -93.9892 78° East 448 516 41,000  Level Kansas City Center
10:56PM 38.5894 -93.8181 78° East 445 512 41,000  Level Kansas City Center
10:57PM 38.6111 -93.6822 78° East 441 507 41,000  Level Kansas City Center
10:58PM 38.6364 -93.5297 78° East 438 504 41,000  Level Kansas City Center
10:59PM 38.6678 -93.3442 78° East 440 506 41,000  Level Kansas City Center
11:00PM 38.6933 -93.1917 78° East 439 505 41,000  Level Kansas City Center
11:01PM 38.7175 -93.0358 79° East 442 509 41,000  Level Kansas City Center
11:02PM 38.7433 -92.8811 78° East 442 509 41,000  Level Kansas City Center
11:03PM 38.7683 -92.7261 78° East 443 510 41,000  Level Kansas City Center
11:04PM 38.7922 -92.5706 79° East 442 509 41,000  Level Kansas City Center
11:05PM 38.8167 -92.4150 79° East 443 510 41,000  Level Kansas City Center
11:06PM 38.8414 -92.2611 78° East 441 507 41,000  Level Kansas City Center
11:07PM 38.8647 -92.1053 79° East 441 507 41,000  Level Kansas City Center
11:08PM 38.8881 -91.9433 79° East 449 517 41,000  Level Kansas City Center
11:09PM 38.9114 -91.7853 79° East 449 517 41,000  Level Kansas City Center
11:10PM 38.9339 -91.6339 79° East 449 517 41,000  Level Kansas City Center
11:11PM 38.9578 -91.4761 79° East 451 519 41,000  Level Kansas City Center
11:12PM 38.9811 -91.3206 79° East 447 514 41,000  Level Kansas City Center
11:13PM 39.0033 -91.1650 80° East 443 510 41,000  Level Kansas City Center
11:14PM 39.0258 -91.0083 79° East 444 511 41,000  Level Kansas City Center
11:15PM 39.0489 -90.8511 79° East 446 513 41,000  Level Kansas City Center
11:16PM 39.0711 -90.6950 80° East 444 511 41,000  Level Kansas City Center
11:17PM 39.0928 -90.5353 80° East 448 516 41,000  Level Kansas City Center
11:18PM 39.1192 -90.3428 80° East 451 519 41,000  Level Kansas City Center
11:19PM 39.1411 -90.1819 80° East 453 521 41,000  Level Kansas City Center
11:20PM 39.1628 -90.0206 80° East 455 524 41,000  Level Kansas City Center
11:21PM 39.1836 -89.8594 80° East 449 517 41,000  Level Kansas City Center
11:22PM 39.2047 -89.7003 80° East 456 525 41,000  Level Kansas City Center
11:23PM 39.2253 -89.5394 81° East 455 524 41,000  Level Kansas City Center
11:24PM 39.2464 -89.3783 80° East 455 524 41,000  Level Kansas City Center
11:25PM 39.2667 -89.2178 81° East 455 524 41,000  Level Kansas City Center
11:26PM 39.2867 -89.0581 81° East 453 521 41,000  Level Kansas City Center
11:27PM 39.3078 -88.8997 80° East 449 517 41,000  Level Kansas City Center
11:28PM 39.3294 -88.7400 80° East 451 519 41,000  Level Kansas City Center
11:29PM 39.3472 -88.5800 82° East 453 521 41,000  Level Kansas City Center
11:30PM 39.3653 -88.4197 82° East 452 520 41,000  Level Kansas City Center
11:31PM 39.3872 -88.2239 82° East 453 521 41,000  Level Kansas City Center
11:32PM 39.4092 -88.0561 80° East 461 531 41,000  Level Kansas City Center
11:33PM 39.4289 -87.8897 81° East 464 534 41,000  Level Kansas City Center
11:34PM 39.4364 -87.8083 83° East 459 528 41,000  Level Indianapolis Center
11:35PM 39.4544 -87.6442 82° East 458 527 41,000  Level Indianapolis Center
11:36PM 39.4736 -87.4797 81° East 458 527 41,000  Level Indianapolis Center
11:37PM 39.4906 -87.3158 82° East 456 525 41,000  Level Indianapolis Center
11:38PM 39.5083 -87.1533 82° East 454 522 41,000  Level Indianapolis Center
11:39PM 39.5267 -86.9914 82° East 453 521 41,000  Level Indianapolis Center
11:40PM 39.5444 -86.8297 82° East 452 520 41,000  Level Indianapolis Center
11:41PM 39.5608 -86.6672 82° East 453 521 41,000  Level Indianapolis Center
11:42PM 39.5794 -86.4800 83° East 450 518 41,000  Level Indianapolis Center
11:43PM 39.5956 -86.3181 83° East 455 524 41,000  Level Indianapolis Center
11:44PM 39.6103 -86.1569 83° East 456 525 41,000  Level Indianapolis Center
11:45PM 39.6275 -85.9972 82° East 450 518 41,000  Level Indianapolis Center
11:46PM 39.6431 -85.8353 83° East 452 520 41,000  Level Indianapolis Center
11:47PM 39.6592 -85.6733 83° East 451 519 41,000  Level Indianapolis Center
11:48PM 39.6744 -85.5114 83° East 452 520 41,000  Level Indianapolis Center
11:49PM 39.6886 -85.3478 84° East 453 521 41,000  Level Indianapolis Center
11:50PM 39.7047 -85.1844 83° East 455 524 41,000  Level Indianapolis Center
11:51PM 39.7194 -85.0203 83° East 456 525 41,000  Level Indianapolis Center
11:52PM 39.7278 -84.8544 86° East 453 521 41,000  Level Indianapolis Center
11:53PM 39.7344 -84.6897 87° East 454 522 41,000  Level Indianapolis Center
11:54PM 39.7428 -84.5244 86° East 454 522 41,000  Level Indianapolis Center
11:55PM 39.7497 -84.3603 87° East 453 521 41,000  Level Indianapolis Center
11:56PM 39.7586 -84.1939 86° East 456 525 41,000  Level Indianapolis Center
11:57PM 39.7647 -84.0286 87° East 455 524 41,000  Level Indianapolis Center
11:58PM 39.7714 -83.8633 87° East 456 525 41,000  Level Indianapolis Center
11:59PM 39.7769 -83.6981 87° East 456 525 41,000  Level Indianapolis Center
12:00AM 39.7833 -83.5269 87° East 459 528 41,000  Level Indianapolis Center
12:01AM 39.7911 -83.3600 86° East 460 529 41,000  Level Indianapolis Center
12:02AM 39.7967 -83.1794 88° East 460 529 41,000  Level Indianapolis Center
12:03AM 39.8022 -83.0119 87° East 461 531 41,000  Level Indianapolis Center
12:04AM 39.8075 -82.8433 88° East 464 534 41,000  Level Indianapolis Center
12:05AM 39.8128 -82.6756 88° East 461 531 41,000  Level Indianapolis Center
12:06AM 39.8175 -82.5064 88° East 464 534 41,000  Level Indianapolis Center
12:07AM 39.8228 -82.3372 88° East 464 534 41,000  Level Indianapolis Center
12:08AM 39.8261 -82.1692 88° East 462 532 41,000  Level Indianapolis Center
12:09AM 39.8314 -82.0025 88° East 461 531 41,000  Level Indianapolis Center
12:11AM 39.8353 -81.8353 88° East 458 527 41,000  Level Indianapolis Center
12:12AM 39.8356 -81.6683 90° East 459 528 41,000  Level Indianapolis Center
12:13AM 39.8158 -81.4992 99° East 466 536 41,000  Level Indianapolis Center
12:14AM 39.7972 -81.3197 98° East 467 537 41,000  Level Indianapolis Center
12:15AM 39.7803 -81.1533 97° East 463 533 41,000  Level Indianapolis Center
12:16AM 39.7617 -80.9858 98° East 465 535 41,000  Level Indianapolis Center
12:17AM 39.7450 -80.8189 97° East 465 535 41,000  Level Indianapolis Center
12:18AM 39.7258 -80.6531 98° East 464 534 41,000  Level Indianapolis Center
12:19AM 39.7081 -80.4872 98° East 462 532 41,000  Level Indianapolis Center
12:20AM 39.6919 -80.3164 97° East 449 517 41,000  Level Washington Center
12:21AM 39.6733 -80.1481 98° East 454 522 41,000  Level Washington Center
12:22AM 39.6544 -79.9878 99° East 454 522 41,000 -360 Level Washington Center
12:23AM 39.6353 -79.8247 99° East 454 522 40,300 -900 Descending Washington Center
12:24AM 39.6161 -79.6567 98° East 454 522 39,300 -960 Descending Washington Center
12:25AM 39.5967 -79.4886 98° East 459 528 38,400 -900 Descending Washington Center
12:26AM 39.5769 -79.3206 99° East 465 535 37,500 -1,020 Descending Washington Center
12:27AM 39.5533 -79.1364 99° East 470 541 36,400 -2,340 Descending Washington Center
12:28AM 39.5308 -78.9683 100° East 470 541 32,900 -3,480 Descending Washington Center
12:29AM 39.5106 -78.8033 99° East 470 541 29,400 -3,240 Descending Washington Center
12:30AM 39.4914 -78.6519 99° East 450 518 26,500 -2,880 Descending Washington Center
12:31AM 39.4742 -78.5139 99° East 421 484 23,800 -2,400 Descending Washington Center
12:32AM 39.4581 -78.4006 100° East 406 467 21,700 -2,640 Descending Washington Center
12:33AM 39.4347 -78.2331 100° East 396 456 18,500 -2,820 Descending Washington Center
12:34AM 39.4167 -78.1006 100° East 385 443 16,100 -1,980 Descending Washington Center
12:35AM 39.4028 -77.9686 98° East 380 437 14,600 -1,980 Descending Washington Center
12:36AM 39.4133 -77.8425 84° East 361 415 12,200 -1,920 Descending Washington Center
12:37AM 39.4239 -77.7194 84° East 349 402 10,700 -1,140 Descending Washington Center
12:38AM 39.4364 -77.6097 82° East 329 379 10,000 -1,020 Descending Washington Center
12:39AM 39.4442 -77.5131 84° East 298 343 8,700 -1,200 Descending Washington Center
12:40AM 39.4539 -77.4167 83° East 278 320 7,700 -1,020 Descending Washington Center
12:41AM 39.4617 -77.3172 84° East 278 320 6,700 -1,020 Descending Washington Center
12:42AM 39.4714 -77.2233 82° East 278 320 5,700 -900 Descending Washington Center
12:43AM 39.4789 -77.1322 84° East 268 308 5,000 -720 Descending Washington Center
12:44AM 39.5167 -77.0500 59° Northeast 225 259 4,200 -840 Descending Potomac TRACON
12:45AM 39.5000 -76.9833 108° East 201 231 3,300 -660 Descending Potomac TRACON
12:46AM 39.4667 -76.9500 142° Southeast 205 236 3,000 -180 Descending Potomac TRACON
12:47AM 39.4333 -76.9167 142° Southeast 189 217 3,000  Level Potomac TRACON
12:48AM 39.4000 -76.8833 142° Southeast 171 197 3,000  Level Potomac TRACON
12:49AM 39.3667 -76.8500 142° Southeast 149 171 3,000  Level Potomac TRACON
12:50AM 39.3333 -76.8167 142° Southeast 143 165 3,000  Level Potomac TRACON
12:51AM 39.3000 -76.7833 142° Southeast 143 165 3,000 -360 Level Potomac TRACON
12:52AM 39.2667 -76.7667 159° South 141 162 2,300 -780 Descending Potomac TRACON
12:53AM 39.2500 -76.7333 123° Southeast 132 152 1,600 -720 Descending Potomac TRACON
12:54AM 39.2167 -76.7167 159° South 125 144 1,000 -600 Descending Potomac TRACON
12:55AM 39.2000 -76.6833 123° Southeast 125 144 400 -600 Descending Potomac TRACON
12:57AM 39.1754 -76.6683 142° Southeast  Level Estimated